sensor_id;sensor_type;location;lat;lon;timestamp;pressure;altitude;pressure_sealevel;temperature;humidity
54308;BME280;40208;39.778;2.710;2023-02-18T00:02:23;103063.94;;;6.87;100.00
54308;BME280;40208;39.778;2.710;2023-02-18T00:05:09;103068.28;;;6.83;100.00
54308;BME280;40208;39.778;2.710;2023-02-18T00:07:54;103056.88;;;6.81;100.00
54308;BME280;40208;39.778;2.710;2023-02-18T00:10:42;103066.50;;;6.76;100.00
54308;BME280;40208;39.778;2.710;2023-02-18T00:13:27;103055.00;;;6.68;100.00
54308;BME280;40208;39.778;2.710;2023-02-18T00:16:11;103062.84;;;6.58;100.00
54308;BME280;40208;39.778;2.710;2023-02-18T00:18:57;103059.31;;;6.55;100.00
54308;BME280;40208;39.778;2.710;2023-02-18T00:21:42;103055.78;;;6.53;100.00
54308;BME280;40208;39.778;2.710;2023-02-18T00:24:27;103060.97;;;6.47;100.00
54308;BME280;40208;39.778;2.710;2023-02-18T00:27:12;103054.00;;;6.52;100.00
54308;BME280;40208;39.778;2.710;2023-02-18T00:29:57;103054.00;;;6.52;100.00
54308;BME280;40208;39.778;2.710;2023-02-18T00:32:42;103054.91;;;6.57;100.00
54308;BME280;40208;39.778;2.710;2023-02-18T00:35:27;103053.09;;;6.50;100.00
54308;BME280;40208;39.778;2.710;2023-02-18T00:38:12;103044.25;;;6.42;100.00
54308;BME280;40208;39.778;2.710;2023-02-18T00:40:57;103046.94;;;6.49;100.00
54308;BME280;40208;39.778;2.710;2023-02-18T00:43:42;103046.97;;;6.54;100.00
54308;BME280;40208;39.778;2.710;2023-02-18T00:46:27;103052.31;;;6.62;100.00
54308;BME280;40208;39.778;2.710;2023-02-18T00:49:12;103043.41;;;6.46;100.00
54308;BME280;40208;39.778;2.710;2023-02-18T00:51:57;103044.22;;;6.39;100.00
54308;BME280;40208;39.778;2.710;2023-02-18T00:54:42;103042.44;;;6.37;100.00
54308;BME280;40208;39.778;2.710;2023-02-18T00:57:27;103041.59;;;6.40;100.00
54308;BME280;40208;39.778;2.710;2023-02-18T01:00:11;103041.59;;;6.40;100.00
54308;BME280;40208;39.778;2.710;2023-02-18T01:02:56;103047.69;;;6.34;100.00
54308;BME280;40208;39.778;2.710;2023-02-18T01:05:41;103046.84;;;6.40;100.00
54308;BME280;40208;39.778;2.710;2023-02-18T01:08:26;103057.47;;;6.46;100.00
54308;BME280;40208;39.778;2.710;2023-02-18T01:11:11;103053.22;;;6.62;100.00
54308;BME280;40208;39.778;2.710;2023-02-18T01:13:55;103047.00;;;6.58;100.00
54308;BME280;40208;39.778;2.710;2023-02-18T01:16:40;103046.09;;;6.50;100.00
54308;BME280;40208;39.778;2.710;2023-02-18T01:19:25;103045.09;;;6.39;100.00
54308;BME280;40208;39.778;2.710;2023-02-18T01:22:10;103045.00;;;6.27;100.00
54308;BME280;40208;39.778;2.710;2023-02-18T01:24:55;103054.56;;;6.19;100.00
54308;BME280;40208;39.778;2.710;2023-02-18T01:27:39;103045.69;;;6.09;100.00
54308;BME280;40208;39.778;2.710;2023-02-18T01:30:24;103041.19;;;6.00;100.00
54308;BME280;40208;39.778;2.710;2023-02-18T01:33:09;103045.59;;;5.98;100.00
54308;BME280;40208;39.778;2.710;2023-02-18T01:35:54;103042.06;;;5.96;100.00
54308;BME280;40208;39.778;2.710;2023-02-18T01:38:39;103040.13;;;5.84;100.00
54308;BME280;40208;39.778;2.710;2023-02-18T01:41:24;103042.75;;;5.83;100.00
54308;BME280;40208;39.778;2.710;2023-02-18T01:44:16;103043.56;;;5.77;100.00
54308;BME280;40208;39.778;2.710;2023-02-18T01:47:01;103048.91;;;5.82;100.00
54308;BME280;40208;39.778;2.710;2023-02-18T01:49:47;103032.16;;;5.78;100.00
54308;BME280;40208;39.778;2.710;2023-02-18T01:52:33;103037.34;;;5.70;100.00
54308;BME280;40208;39.778;2.710;2023-02-18T01:55:18;103029.38;;;5.66;100.00
54308;BME280;40208;39.778;2.710;2023-02-18T01:58:03;103038.16;;;5.65;100.00
54308;BME280;40208;39.778;2.710;2023-02-18T02:00:48;103026.84;;;5.73;100.00
54308;BME280;40208;39.778;2.710;2023-02-18T02:03:33;103034.75;;;5.75;100.00
54308;BME280;40208;39.778;2.710;2023-02-18T02:06:18;103031.25;;;5.76;100.00
54308;BME280;40208;39.778;2.710;2023-02-18T02:09:04;103036.50;;;5.73;100.00
54308;BME280;40208;39.778;2.710;2023-02-18T02:38:11;103011.53;;;5.40;100.00
54308;BME280;40208;39.778;2.710;2023-02-18T02:41:17;103013.38;;;5.47;100.00
54308;BME280;40208;39.778;2.710;2023-02-18T02:46:52;103013.22;;;5.35;100.00
54308;BME280;40208;39.778;2.710;2023-02-18T02:52:26;103012.13;;;5.18;100.00
54308;BME280;40208;39.778;2.710;2023-02-18T02:55:13;103001.53;;;5.15;100.00
54308;BME280;40208;39.778;2.710;2023-02-18T02:57:58;103006.91;;;5.21;100.00
54308;BME280;40208;39.778;2.710;2023-02-18T03:01:08;103003.41;;;5.23;100.00
54308;BME280;40208;39.778;2.710;2023-02-18T03:15:24;103009.53;;;5.21;100.00
54308;BME280;40208;39.778;2.710;2023-02-18T03:18:15;103000.66;;;5.13;100.00
54308;BME280;40208;39.778;2.710;2023-02-18T03:21:06;102998.00;;;5.11;100.00
54308;BME280;40208;39.778;2.710;2023-02-18T03:23:52;102997.06;;;5.07;100.00
54308;BME280;40208;39.778;2.710;2023-02-18T03:26:41;102995.34;;;5.08;100.00
54308;BME280;40208;39.778;2.710;2023-02-18T03:29:27;102991.84;;;5.10;100.00
54308;BME280;40208;39.778;2.710;2023-02-18T03:32:13;102995.34;;;5.09;100.00
54308;BME280;40208;39.778;2.710;2023-02-18T03:35:00;102986.53;;;5.07;100.00
54308;BME280;40208;39.778;2.710;2023-02-18T03:37:50;102992.56;;;5.00;100.00
54308;BME280;40208;39.778;2.710;2023-02-18T03:40:36;102994.31;;;4.98;100.00
54308;BME280;40208;39.778;2.710;2023-02-18T03:43:22;102987.19;;;4.91;100.00
54308;BME280;40208;39.778;2.710;2023-02-18T03:46:07;102986.28;;;4.87;100.00
54308;BME280;40208;39.778;2.710;2023-02-18T03:48:52;102987.09;;;4.82;100.00
54308;BME280;40208;39.778;2.710;2023-02-18T03:51:37;102981.75;;;4.77;100.00
54308;BME280;40208;39.778;2.710;2023-02-18T03:54:21;102986.09;;;4.77;100.00
54308;BME280;40208;39.778;2.710;2023-02-18T03:57:06;102977.38;;;4.78;100.00
54308;BME280;40208;39.778;2.710;2023-02-18T03:59:51;102977.41;;;4.79;100.00
54308;BME280;40208;39.778;2.710;2023-02-18T04:02:36;102976.66;;;4.89;100.00
54308;BME280;40208;39.778;2.710;2023-02-18T04:05:21;102975.91;;;5.00;100.00
54308;BME280;40208;39.778;2.710;2023-02-18T04:08:05;102971.63;;;5.06;100.00
54308;BME280;40208;39.778;2.710;2023-02-18T04:10:50;102965.47;;;5.07;100.00
54308;BME280;40208;39.778;2.710;2023-02-18T04:13:35;102962.75;;;5.00;100.00
54308;BME280;40208;39.778;2.710;2023-02-18T04:16:20;102960.97;;;4.97;100.00
54308;BME280;40208;39.778;2.710;2023-02-18T04:19:05;102965.31;;;4.95;100.00
54308;BME280;40208;39.778;2.710;2023-02-18T04:21:49;102974.88;;;4.87;100.00
54308;BME280;40208;39.778;2.710;2023-02-18T04:24:34;102974.72;;;4.76;100.00
54308;BME280;40208;39.778;2.710;2023-02-18T04:27:19;102964.13;;;4.70;100.00
54308;BME280;40208;39.778;2.710;2023-02-18T04:30:04;102976.38;;;4.71;100.00
54308;BME280;40208;39.778;2.710;2023-02-18T04:32:49;102971.09;;;4.68;100.00
54308;BME280;40208;39.778;2.710;2023-02-18T04:35:34;102969.25;;;4.61;100.00
54308;BME280;40208;39.778;2.710;2023-02-18T04:38:19;102976.19;;;4.57;100.00
54308;BME280;40208;39.778;2.710;2023-02-18T04:41:04;102978.75;;;4.51;100.00
54308;BME280;40208;39.778;2.710;2023-02-18T04:43:49;102985.91;;;4.61;100.00
54308;BME280;40208;39.778;2.710;2023-02-18T04:46:34;102978.91;;;4.63;100.00
54308;BME280;40208;39.778;2.710;2023-02-18T04:49:19;102984.03;;;4.54;100.00
54308;BME280;40208;39.778;2.710;2023-02-18T04:52:04;102981.44;;;4.57;100.00
54308;BME280;40208;39.778;2.710;2023-02-18T04:54:49;102971.03;;;4.65;100.00
54308;BME280;40208;39.778;2.710;2023-02-18T04:57:33;102971.94;;;4.65;100.00
54308;BME280;40208;39.778;2.710;2023-02-18T05:00:18;102977.19;;;4.65;100.00
54308;BME280;40208;39.778;2.710;2023-02-18T05:03:03;102972.94;;;4.77;100.00
54308;BME280;40208;39.778;2.710;2023-02-18T05:05:48;102975.72;;;4.86;100.00
54308;BME280;40208;39.778;2.710;2023-02-18T05:08:33;102972.22;;;4.85;100.00
54308;BME280;40208;39.778;2.710;2023-02-18T05:11:17;102977.41;;;4.81;100.00
54308;BME280;40208;39.778;2.710;2023-02-18T05:14:02;102972.09;;;4.78;100.00
54308;BME280;40208;39.778;2.710;2023-02-18T05:16:47;102981.53;;;4.65;100.00
54308;BME280;40208;39.778;2.710;2023-02-18T05:19:32;102978.81;;;4.57;100.00
54308;BME280;40208;39.778;2.710;2023-02-18T05:22:17;102981.41;;;4.54;100.00
54308;BME280;40208;39.778;2.710;2023-02-18T05:25:02;102983.16;;;4.55;100.00
54308;BME280;40208;39.778;2.710;2023-02-18T05:27:47;102973.66;;;4.63;100.00
54308;BME280;40208;39.778;2.710;2023-02-18T05:30:31;102979.75;;;4.62;100.00
54308;BME280;40208;39.778;2.710;2023-02-18T05:33:16;102986.72;;;4.59;100.00
54308;BME280;40208;39.778;2.710;2023-02-18T05:36:01;102984.03;;;4.54;100.00
54308;BME280;40208;39.778;2.710;2023-02-18T05:38:46;102993.56;;;4.47;100.00
54308;BME280;40208;39.778;2.710;2023-02-18T05:41:30;102983.91;;;4.46;100.00
54308;BME280;40208;39.778;2.710;2023-02-18T05:44:15;102990.03;;;4.45;100.00
54308;BME280;40208;39.778;2.710;2023-02-18T05:47:16;102995.19;;;4.39;100.00
54308;BME280;40208;39.778;2.710;2023-02-18T05:50:00;102991.63;;;4.36;100.00
54308;BME280;40208;39.778;2.710;2023-02-18T05:52:45;102992.31;;;4.24;100.00
54308;BME280;40208;39.778;2.710;2023-02-18T05:55:30;102995.69;;;4.15;100.00
54308;BME280;40208;39.778;2.710;2023-02-18T05:58:15;102996.53;;;4.14;100.00
54308;BME280;40208;39.778;2.710;2023-02-18T06:01:00;103000.13;;;4.19;100.00
54308;BME280;40208;39.778;2.710;2023-02-18T06:03:45;102992.34;;;4.27;100.00
54308;BME280;40208;39.778;2.710;2023-02-18T06:06:30;102985.38;;;4.28;100.00
54308;BME280;40208;39.778;2.710;2023-02-18T06:09:15;102982.00;;;4.36;100.00
54308;BME280;40208;39.778;2.710;2023-02-18T06:11:59;102974.03;;;4.32;100.00
54308;BME280;40208;39.778;2.710;2023-02-18T06:14:45;102977.53;;;4.31;100.00
54308;BME280;40208;39.778;2.710;2023-02-18T06:17:30;102980.28;;;4.37;100.00
54308;BME280;40208;39.778;2.710;2023-02-18T06:20:14;102971.47;;;4.35;100.00
54308;BME280;40208;39.778;2.710;2023-02-18T06:22:59;102978.81;;;4.57;100.00
54308;BME280;40208;39.778;2.710;2023-02-18T06:25:46;102971.81;;;4.56;100.00
54308;BME280;40208;39.778;2.710;2023-02-18T06:28:31;102979.69;;;4.58;100.00
54308;BME280;40208;39.778;2.710;2023-02-18T06:31:16;102976.94;;;4.50;100.00
54308;BME280;40208;39.778;2.710;2023-02-18T06:34:01;102985.53;;;4.37;100.00
54308;BME280;40208;39.778;2.710;2023-02-18T06:36:45;102988.00;;;4.28;100.00
54308;BME280;40208;39.778;2.710;2023-02-18T06:39:30;102993.31;;;4.31;100.00
54308;BME280;40208;39.778;2.710;2023-02-18T06:42:15;102989.94;;;4.39;100.00
54308;BME280;40208;39.778;2.710;2023-02-18T06:45:00;102981.47;;;4.59;100.00
54308;BME280;40208;39.778;2.710;2023-02-18T06:47:44;102984.38;;;4.77;100.00
54308;BME280;40208;39.778;2.710;2023-02-18T06:50:30;102986.03;;;4.71;100.00
54308;BME280;40208;39.778;2.710;2023-02-18T06:53:14;102988.53;;;4.61;100.00
54308;BME280;40208;39.778;2.710;2023-02-18T06:56:02;102992.72;;;4.50;100.00
54308;BME280;40208;39.778;2.710;2023-02-18T06:58:47;102990.34;;;4.67;100.00
54308;BME280;40208;39.778;2.710;2023-02-18T07:01:31;103005.88;;;4.50;100.00
54308;BME280;40208;39.778;2.710;2023-02-18T07:04:16;103006.59;;;4.40;100.00
54308;BME280;40208;39.778;2.710;2023-02-18T07:07:01;103009.09;;;4.34;100.00
54308;BME280;40208;39.778;2.710;2023-02-18T07:09:46;103010.75;;;4.25;100.00
54308;BME280;40208;39.778;2.710;2023-02-18T07:12:30;103015.19;;;4.30;100.00
54308;BME280;40208;39.778;2.710;2023-02-18T07:15:16;103018.63;;;4.27;100.00
54308;BME280;40208;39.778;2.710;2023-02-18T07:18:00;103015.13;;;4.27;100.00
54308;BME280;40208;39.778;2.710;2023-02-18T07:20:45;103025.78;;;4.34;100.00
54308;BME280;40208;39.778;2.710;2023-02-18T07:23:30;103037.09;;;4.30;100.00
54308;BME280;40208;39.778;2.710;2023-02-18T07:26:15;103037.09;;;4.30;100.00
54308;BME280;40208;39.778;2.710;2023-02-18T07:28:59;103038.75;;;4.23;100.00
54308;BME280;40208;39.778;2.710;2023-02-18T07:31:44;102857.31;;;3.14;100.00
54308;BME280;40208;39.778;2.710;2023-02-18T07:34:28;103043.19;;;4.29;100.00
54308;BME280;40208;39.778;2.710;2023-02-18T07:37:13;103045.03;;;4.33;100.00
54308;BME280;40208;39.778;2.710;2023-02-18T07:39:57;103046.06;;;4.41;100.00
54308;BME280;40208;39.778;2.710;2023-02-18T07:42:42;103054.28;;;4.61;100.00
54308;BME280;40208;39.778;2.710;2023-02-18T07:45:27;103055.63;;;4.93;100.00
54308;BME280;40208;39.778;2.710;2023-02-18T07:48:12;103049.13;;;5.27;100.00
54308;BME280;40208;39.778;2.710;2023-02-18T07:50:56;103053.06;;;5.63;100.00
54308;BME280;40208;39.778;2.710;2023-02-18T07:53:40;103057.00;;;5.97;100.00
54308;BME280;40208;39.778;2.710;2023-02-18T07:56:25;103050.28;;;6.30;100.00
54308;BME280;40208;39.778;2.710;2023-02-18T07:59:10;103053.22;;;6.65;100.00
54308;BME280;40208;39.778;2.710;2023-02-18T08:01:55;103042.91;;;6.99;100.00
54308;BME280;40208;39.778;2.710;2023-02-18T08:04:40;103043.09;;;7.34;100.00
54308;BME280;40208;39.778;2.710;2023-02-18T08:07:25;103046.75;;;7.70;100.00
54308;BME280;40208;39.778;2.710;2023-02-18T08:10:09;103053.88;;;8.06;100.00
54308;BME280;40208;39.778;2.710;2023-02-18T08:12:54;103046.91;;;8.41;100.00
54308;BME280;40208;39.778;2.710;2023-02-18T08:15:39;103039.84;;;8.74;100.00
54308;BME280;40208;39.778;2.710;2023-02-18T08:18:25;103045.97;;;9.03;100.00
54308;BME280;40208;39.778;2.710;2023-02-18T08:21:10;103046.78;;;9.31;100.00
54308;BME280;40208;39.778;2.710;2023-02-18T08:23:56;103042.25;;;9.53;100.00
54308;BME280;40208;39.778;2.710;2023-02-18T08:26:41;103050.97;;;9.77;100.00
54308;BME280;40208;39.778;2.710;2023-02-18T08:29:26;103048.22;;;9.94;100.00
54308;BME280;40208;39.778;2.710;2023-02-18T08:32:11;103041.97;;;10.09;100.00
54308;BME280;40208;39.778;2.710;2023-02-18T08:34:55;103037.38;;;10.34;100.00
54308;BME280;40208;39.778;2.710;2023-02-18T08:37:40;103041.50;;;10.69;100.00
54308;BME280;40208;39.778;2.710;2023-02-18T08:40:25;103039.59;;;10.81;100.00
54308;BME280;40208;39.778;2.710;2023-02-18T08:43:10;103041.13;;;11.06;100.00
54308;BME280;40208;39.778;2.710;2023-02-18T08:45:56;103037.25;;;11.36;100.00
54308;BME280;40208;39.778;2.710;2023-02-18T08:48:40;103043.16;;;11.59;100.00
54308;BME280;40208;39.778;2.710;2023-02-18T08:51:25;103040.03;;;11.95;100.00
54308;BME280;40208;39.778;2.710;2023-02-18T08:54:10;103038.63;;;12.29;100.00
54308;BME280;40208;39.778;2.710;2023-02-18T08:56:54;103034.22;;;12.27;100.00
54308;BME280;40208;39.778;2.710;2023-02-18T08:59:40;103038.63;;;12.29;100.00
54308;BME280;40208;39.778;2.710;2023-02-18T09:02:25;103040.34;;;12.32;100.00
54308;BME280;40208;39.778;2.710;2023-02-18T09:05:12;103045.63;;;12.34;100.00
54308;BME280;40208;39.778;2.710;2023-02-18T09:07:57;103036.78;;;12.33;100.00
54308;BME280;40208;39.778;2.710;2023-02-18T09:10:42;103042.16;;;12.28;100.00
54308;BME280;40208;39.778;2.710;2023-02-18T09:13:26;103038.63;;;12.29;100.00
54308;BME280;40208;39.778;2.710;2023-02-18T09:16:13;103040.31;;;12.34;100.00
54308;BME280;40208;39.778;2.710;2023-02-18T09:18:58;103040.22;;;12.40;100.00
54308;BME280;40208;39.778;2.710;2023-02-18T09:21:43;103040.88;;;12.52;100.00
54308;BME280;40208;39.778;2.710;2023-02-18T09:24:27;103045.97;;;12.68;100.00
54308;BME280;40208;39.778;2.710;2023-02-18T09:27:12;103036.88;;;12.80;100.00
54308;BME280;40208;39.778;2.710;2023-02-18T09:29:57;103034.81;;;12.94;100.00
54308;BME280;40208;39.778;2.710;2023-02-18T09:32:42;103039.91;;;13.08;100.00
54308;BME280;40208;39.778;2.710;2023-02-18T09:35:27;103035.19;;;13.21;100.00
54308;BME280;40208;39.778;2.710;2023-02-18T09:38:13;103030.63;;;13.29;100.00
54308;BME280;40208;39.778;2.710;2023-02-18T09:40:57;103031.22;;;13.43;100.00
54308;BME280;40208;39.778;2.710;2023-02-18T09:43:45;103034.41;;;13.59;100.00
54308;BME280;40208;39.778;2.710;2023-02-18T09:46:33;103027.34;;;13.97;100.00
54308;BME280;40208;39.778;2.710;2023-02-18T09:49:24;103033.97;;;14.18;100.00
54308;BME280;40208;39.778;2.710;2023-02-18T09:52:11;103027.31;;;14.34;100.00
54308;BME280;40208;39.778;2.710;2023-02-18T09:54:56;103029.75;;;14.45;100.00
54308;BME280;40208;39.778;2.710;2023-02-18T09:57:42;103029.53;;;14.53;100.00
54308;BME280;40208;39.778;2.710;2023-02-18T10:00:33;103021.31;;;14.62;100.00
54308;BME280;40208;39.778;2.710;2023-02-18T10:03:22;103034.06;;;14.85;100.00
54308;BME280;40208;39.778;2.710;2023-02-18T10:06:11;103030.84;;;15.05;100.00
54308;BME280;40208;39.778;2.710;2023-02-18T10:09:00;103030.97;;;15.32;100.00
54308;BME280;40208;39.778;2.710;2023-02-18T10:11:51;103030.09;;;15.61;100.00
54308;BME280;40208;39.778;2.710;2023-02-18T10:14:36;103034.66;;;15.88;100.00
54308;BME280;40208;39.778;2.710;2023-02-18T10:17:22;103023.38;;;16.05;100.00
54308;BME280;40208;39.778;2.710;2023-02-18T10:20:09;103019.81;;;16.33;100.00
54308;BME280;40208;39.778;2.710;2023-02-18T10:22:56;103014.75;;;16.50;100.00
54308;BME280;40208;39.778;2.710;2023-02-18T10:25:43;103016.38;;;16.81;100.00
54308;BME280;40208;39.778;2.710;2023-02-18T10:28:28;103019.06;;;17.06;100.00
54308;BME280;40208;39.778;2.710;2023-02-18T10:31:21;103024.03;;;17.41;100.00
54308;BME280;40208;39.778;2.710;2023-02-18T10:49:03;103014.03;;;18.56;100.00
54308;BME280;40208;39.778;2.710;2023-02-18T10:51:54;103016.34;;;18.43;100.00
54308;BME280;40208;39.778;2.710;2023-02-18T10:57:52;103007.41;;;18.85;100.00
54308;BME280;40208;39.778;2.710;2023-02-18T11:00:38;103003.78;;;18.64;100.00
54308;BME280;40208;39.778;2.710;2023-02-18T11:03:24;103002.78;;;18.46;100.00
54308;BME280;40208;39.778;2.710;2023-02-18T11:06:26;102997.63;;;18.41;100.00
54308;BME280;40208;39.778;2.710;2023-02-18T11:12:21;103009.44;;;18.37;100.00
54308;BME280;40208;39.778;2.710;2023-02-18T11:18:10;102996.91;;;18.36;100.00
54308;BME280;40208;39.778;2.710;2023-02-18T11:20:58;102996.72;;;19.02;95.42
54308;BME280;40208;39.778;2.710;2023-02-18T11:23:48;103001.66;;;18.93;100.00
54308;BME280;40208;39.778;2.710;2023-02-18T11:26:33;102994.94;;;18.82;100.00
54308;BME280;40208;39.778;2.710;2023-02-18T11:29:22;102991.81;;;18.71;100.00
54308;BME280;40208;39.778;2.710;2023-02-18T11:32:09;103000.66;;;18.75;97.10
54308;BME280;40208;39.778;2.710;2023-02-18T11:34:54;103000.19;;;18.85;100.00
54308;BME280;40208;39.778;2.710;2023-02-18T11:37:39;102993.97;;;19.04;94.28
54308;BME280;40208;39.778;2.710;2023-02-18T11:40:30;102991.69;;;19.15;93.96
54308;BME280;40208;39.778;2.710;2023-02-18T11:43:16;102996.09;;;19.16;97.03
54308;BME280;40208;39.778;2.710;2023-02-18T11:48:53;102991.38;;;19.21;99.01
54308;BME280;40208;39.778;2.710;2023-02-18T11:51:38;102986.59;;;19.28;98.80
54308;BME280;40208;39.778;2.710;2023-02-18T11:57:11;102985.63;;;19.29;99.75
54308;BME280;40208;39.778;2.710;2023-02-18T11:59:58;102979.75;;;19.21;98.90
54308;BME280;40208;39.778;2.710;2023-02-18T12:02:43;102979.09;;;19.16;98.47
54308;BME280;40208;39.778;2.710;2023-02-18T12:05:28;102975.66;;;19.50;93.39
54308;BME280;40208;39.778;2.710;2023-02-18T12:08:23;102964.69;;;19.36;98.43
54308;BME280;40208;39.778;2.710;2023-02-18T12:11:13;102962.94;;;19.16;100.00
54308;BME280;40208;39.778;2.710;2023-02-18T12:13:59;102959.66;;;19.09;100.00
54308;BME280;40208;39.778;2.710;2023-02-18T12:23:00;102938.03;;;18.92;100.00
54308;BME280;40208;39.778;2.710;2023-02-18T12:25:50;102944.94;;;18.97;100.00
54308;BME280;40208;39.778;2.710;2023-02-18T12:31:45;102928.09;;;19.13;98.94
54308;BME280;40208;39.778;2.710;2023-02-18T12:41:01;102913.19;;;19.05;100.00
54308;BME280;40208;39.778;2.710;2023-02-18T12:43:53;102906.25;;;19.00;100.00
54308;BME280;40208;39.778;2.710;2023-02-18T12:58:27;102880.78;;;19.07;100.00
54308;BME280;40208;39.778;2.710;2023-02-18T13:04:25;102873.09;;;18.99;100.00
54308;BME280;40208;39.778;2.710;2023-02-18T13:07:18;102874.69;;;19.03;100.00
54308;BME280;40208;39.778;2.710;2023-02-18T13:16:03;102854.59;;;19.30;100.00
54308;BME280;40208;39.778;2.710;2023-02-18T13:19:09;102841.03;;;19.31;100.00
54308;BME280;40208;39.778;2.710;2023-02-18T13:21:57;102837.41;;;19.32;100.00
54308;BME280;40208;39.778;2.710;2023-02-18T13:24:44;102829.19;;;19.53;99.74
54308;BME280;40208;39.778;2.710;2023-02-18T13:27:30;102833.81;;;19.51;99.63
54308;BME280;40208;39.778;2.710;2023-02-18T13:30:22;102812.22;;;19.33;100.00
54308;BME280;40208;39.778;2.710;2023-02-18T13:33:34;102813.84;;;19.18;100.00
54308;BME280;40208;39.778;2.710;2023-02-18T13:39:05;102809.13;;;19.04;100.00
54308;BME280;40208;39.778;2.710;2023-02-18T13:41:51;102801.81;;;18.89;100.00
54308;BME280;40208;39.778;2.710;2023-02-18T13:56:03;102782.38;;;18.63;100.00
54308;BME280;40208;39.778;2.710;2023-02-18T13:58:49;102771.94;;;18.76;100.00
54308;BME280;40208;39.778;2.710;2023-02-18T14:10:26;102771.53;;;19.03;100.00
54308;BME280;40208;39.778;2.710;2023-02-18T14:16:15;102768.19;;;18.98;100.00
54308;BME280;40208;39.778;2.710;2023-02-18T14:19:00;102763.63;;;19.00;100.00
54308;BME280;40208;39.778;2.710;2023-02-18T14:21:44;102769.53;;;18.89;100.00
54308;BME280;40208;39.778;2.710;2023-02-18T14:24:42;102769.75;;;18.84;100.00
54308;BME280;40208;39.778;2.710;2023-02-18T14:27:29;102770.78;;;18.82;100.00
54308;BME280;40208;39.778;2.710;2023-02-18T14:30:15;102768.63;;;18.89;100.00
54308;BME280;40208;39.778;2.710;2023-02-18T14:33:01;102774.16;;;19.04;100.00
54308;BME280;40208;39.778;2.710;2023-02-18T14:35:55;102764.47;;;19.00;100.00
54308;BME280;40208;39.778;2.710;2023-02-18T14:39:06;102765.88;;;18.90;100.00
54308;BME280;40208;39.778;2.710;2023-02-18T14:50:37;102752.16;;;18.58;100.00
54308;BME280;40208;39.778;2.710;2023-02-18T14:53:24;102756.28;;;18.47;100.00
54308;BME280;40208;39.778;2.710;2023-02-18T14:56:11;102755.16;;;18.32;100.00
54308;BME280;40208;39.778;2.710;2023-02-18T14:58:56;102749.44;;;18.20;100.00
54308;BME280;40208;39.778;2.710;2023-02-18T15:01:45;102749.44;;;18.20;100.00
54308;BME280;40208;39.778;2.710;2023-02-18T15:04:30;102750.50;;;18.16;100.00
54308;BME280;40208;39.778;2.710;2023-02-18T15:07:17;102740.78;;;18.14;100.00
54308;BME280;40208;39.778;2.710;2023-02-18T15:10:02;102736.41;;;18.11;100.00
54308;BME280;40208;39.778;2.710;2023-02-18T15:12:47;102727.91;;;18.01;100.00
54308;BME280;40208;39.778;2.710;2023-02-18T15:15:32;102729.38;;;17.88;100.00
54308;BME280;40208;39.778;2.710;2023-02-18T15:18:32;102739.59;;;17.80;100.00
54308;BME280;40208;39.778;2.710;2023-02-18T15:24:33;102732.94;;;17.89;100.00
54308;BME280;40208;39.778;2.710;2023-02-18T15:27:19;102736.72;;;17.85;100.00
54308;BME280;40208;39.778;2.710;2023-02-18T15:32:59;102734.41;;;17.75;100.00
54308;BME280;40208;39.778;2.710;2023-02-18T15:35:44;102731.53;;;17.80;100.00
54308;BME280;40208;39.778;2.710;2023-02-18T15:38:28;102731.72;;;17.75;100.00
54308;BME280;40208;39.778;2.710;2023-02-18T15:41:14;102725.50;;;17.75;100.00
54308;BME280;40208;39.778;2.710;2023-02-18T15:44:00;102731.50;;;17.59;100.00
54308;BME280;40208;39.778;2.710;2023-02-18T15:46:46;102720.25;;;17.51;100.00
54308;BME280;40208;39.778;2.710;2023-02-18T15:49:31;102723.94;;;17.49;100.00
54308;BME280;40208;39.778;2.710;2023-02-18T15:52:28;102724.16;;;17.44;100.00
54308;BME280;40208;39.778;2.710;2023-02-18T15:55:19;102718.69;;;17.46;100.00
54308;BME280;40208;39.778;2.710;2023-02-18T15:58:11;102719.06;;;17.36;100.00
54308;BME280;40208;39.778;2.710;2023-02-18T16:00:58;102722.72;;;17.35;100.00
54308;BME280;40208;39.778;2.710;2023-02-18T16:03:44;102723.78;;;17.31;100.00
54308;BME280;40208;39.778;2.710;2023-02-18T16:06:30;102715.28;;;17.20;100.00
54308;BME280;40208;39.778;2.710;2023-02-18T16:09:18;102723.44;;;17.19;100.00
54308;BME280;40208;39.778;2.710;2023-02-18T16:12:04;102723.88;;;17.08;100.00
54308;BME280;40208;39.778;2.710;2023-02-18T16:14:49;102724.94;;;17.04;100.00
54308;BME280;40208;39.778;2.710;2023-02-18T16:17:33;102717.28;;;16.94;100.00
54308;BME280;40208;39.778;2.710;2023-02-18T16:23:10;102723.66;;;16.92;100.00
54308;BME280;40208;39.778;2.710;2023-02-18T16:25:55;102712.28;;;16.85;100.00
54308;BME280;40208;39.778;2.710;2023-02-18T16:28:41;102723.25;;;16.79;100.00
54308;BME280;40208;39.778;2.710;2023-02-18T16:31:26;102711.00;;;16.72;100.00
54308;BME280;40208;39.778;2.710;2023-02-18T16:34:10;102719.41;;;16.63;100.00
54308;BME280;40208;39.778;2.710;2023-02-18T16:36:55;102716.84;;;16.60;100.00
54308;BME280;40208;39.778;2.710;2023-02-18T16:39:58;102718.06;;;16.51;100.00
54308;BME280;40208;39.778;2.710;2023-02-18T16:42:42;102715.34;;;16.52;100.00
54308;BME280;40208;39.778;2.710;2023-02-18T16:45:34;102719.16;;;16.47;100.00
54308;BME280;40208;39.778;2.710;2023-02-18T16:51:05;102719.56;;;16.36;100.00
54308;BME280;40208;39.778;2.710;2023-02-18T16:53:51;102714.53;;;16.27;100.00
54308;BME280;40208;39.778;2.710;2023-02-18T16:56:35;102731.75;;;16.21;100.00
54308;BME280;40208;39.778;2.710;2023-02-18T16:59:20;102718.50;;;16.17;100.00
54308;BME280;40208;39.778;2.710;2023-02-18T17:02:08;102717.91;;;16.08;100.00